createdAt,value
2022-10-19T00:01:26.199Z,100763.84
2022-10-19T00:03:56.557Z,100766.81
2022-10-19T00:06:27.246Z,100764.52
2022-10-19T00:08:57.999Z,100763.75
2022-10-19T00:11:26.681Z,100765.05
2022-10-19T00:13:57.749Z,100768.75
2022-10-19T00:16:28.374Z,100768.20
2022-10-19T00:18:58.775Z,100767.83
2022-10-19T00:21:28.275Z,100766.00
2022-10-19T00:23:56.946Z,100767.80
2022-10-19T00:26:25.952Z,100762.48
2022-10-19T00:28:55.215Z,100762.81
2022-10-19T00:31:24.242Z,100760.20
2022-10-19T00:33:56.070Z,100762.14
2022-10-19T00:36:26.969Z,100760.11
2022-10-19T00:38:57.007Z,100763.01
2022-10-19T00:41:28.977Z,100765.11
2022-10-19T00:44:00.909Z,100761.89
2022-10-19T00:46:32.796Z,100757.04
2022-10-19T00:49:07.085Z,100756.42
2022-10-19T00:51:42.457Z,100753.94
2022-10-19T00:54:11.948Z,100747.23
2022-10-19T00:56:43.103Z,100749.95
2022-10-19T00:59:14.964Z,100748.05
2022-10-19T01:01:46.138Z,100747.61
2022-10-19T01:04:15.493Z,100743.26
2022-10-19T01:06:45.339Z,100748.69
2022-10-19T01:09:14.042Z,100744.02
2022-10-19T01:11:54.243Z,100741.58
2022-10-19T01:14:35.552Z,100740.81
2022-10-19T01:17:13.788Z,100737.95
2022-10-19T01:20:08.299Z,100736.67
2022-10-19T01:22:46.908Z,100728.23
2022-10-19T01:25:25.144Z,100721.63
2022-10-19T01:28:11.599Z,100720.42
2022-10-19T01:30:48.421Z,100717.23
2022-10-19T01:33:32.081Z,100719.77
2022-10-19T01:36:12.135Z,100721.13
2022-10-19T01:38:49.756Z,100719.18
2022-10-19T01:41:24.049Z,100713.88
2022-10-19T01:43:59.958Z,100711.25
2022-10-19T01:46:36.638Z,100706.26
2022-10-19T01:49:13.829Z,100708.02
2022-10-19T01:51:47.676Z,100715.13
2022-10-19T01:54:20.312Z,100712.02
2022-10-19T01:56:52.497Z,100712.11
2022-10-19T01:59:22.553Z,100705.12
2022-10-19T02:01:53.841Z,100707.91
2022-10-19T02:04:25.532Z,100703.91
2022-10-19T02:06:55.603Z,100709.31
2022-10-19T02:09:24.736Z,100707.38
2022-10-19T02:11:58.620Z,100706.65
2022-10-19T02:14:34.190Z,100702.12
2022-10-19T02:17:06.382Z,100695.22
2022-10-19T02:19:35.027Z,100697.08
2022-10-19T02:22:04.812Z,100693.49
2022-10-19T02:24:33.915Z,100688.84
2022-10-19T02:27:05.061Z,100690.45
2022-10-19T02:29:34.679Z,100687.64
2022-10-19T02:32:04.030Z,100678.90
2022-10-19T02:34:34.371Z,100677.06
2022-10-19T02:37:03.446Z,100682.70
2022-10-19T02:39:33.190Z,100680.19
2022-10-19T02:42:07.375Z,100679.90
2022-10-19T02:44:43.214Z,100679.50
2022-10-19T02:47:15.762Z,100674.15
2022-10-19T02:49:45.361Z,100672.89
2022-10-19T02:52:15.333Z,100674.67
2022-10-19T02:54:45.195Z,100672.38
2022-10-19T02:57:18.677Z,100670.05
2022-10-19T02:59:47.725Z,100675.22
2022-10-19T03:02:17.470Z,100676.63
2022-10-19T03:07:19.151Z,100680.45
2022-10-19T03:09:48.261Z,100676.32
2022-10-19T03:12:17.236Z,100676.96
2022-10-19T03:14:46.475Z,100679.52
2022-10-19T03:17:15.361Z,100676.06
2022-10-19T03:19:44.247Z,100673.80
2022-10-19T03:22:14.017Z,100669.08
2022-10-19T03:24:48.760Z,100666.99
2022-10-19T03:27:19.328Z,100665.48
2022-10-19T03:29:48.213Z,100664.75
2022-10-19T03:32:16.857Z,100667.41
2022-10-19T03:34:45.692Z,100667.19
2022-10-19T03:37:14.889Z,100665.80
2022-10-19T03:39:43.928Z,100663.94
2022-10-19T03:42:12.713Z,100662.17
2022-10-19T03:44:41.958Z,100657.20
2022-10-19T03:47:10.788Z,100656.86
2022-10-19T03:49:40.346Z,100653.50
2022-10-19T03:52:09.804Z,100652.36
2022-10-19T03:54:38.627Z,100657.34
2022-10-19T03:57:07.776Z,100654.96
2022-10-19T03:59:36.435Z,100652.63
2022-10-19T04:02:05.168Z,100654.62
2022-10-19T04:04:34.875Z,100663.02
2022-10-19T04:07:03.607Z,100663.50
2022-10-19T04:09:32.439Z,100661.69
2022-10-19T04:12:01.098Z,100657.60
2022-10-19T04:14:32.592Z,100654.77
2022-10-19T04:17:02.312Z,100652.11
2022-10-19T04:19:31.704Z,100650.92
2022-10-19T04:22:00.572Z,100651.65
2022-10-19T04:24:29.489Z,100647.41
2022-10-19T04:26:58.183Z,100650.70
2022-10-19T04:29:29.901Z,100647.95
2022-10-19T04:31:59.845Z,100646.53
2022-10-19T04:34:28.687Z,100643.89
2022-10-19T04:36:58.999Z,100635.95
2022-10-19T04:39:27.835Z,100631.71
2022-10-19T04:41:56.590Z,100631.20
2022-10-19T04:44:26.125Z,100626.83
2022-10-19T04:46:55.885Z,100624.08
2022-10-19T04:49:25.411Z,100620.73
2022-10-19T04:51:54.097Z,100617.36
2022-10-19T04:54:24.036Z,100615.86
2022-10-19T04:56:53.392Z,100617.45
2022-10-19T04:59:22.056Z,100619.39
2022-10-19T05:01:50.915Z,100618.59
2022-10-19T05:04:20.203Z,100612.77
2022-10-19T05:06:49.029Z,100617.20
2022-10-19T05:09:18.406Z,100613.80
2022-10-19T05:11:49.211Z,100617.81
2022-10-19T05:14:18.038Z,100614.65
2022-10-19T05:16:46.798Z,100604.69
2022-10-19T05:19:16.423Z,100611.34
2022-10-19T05:21:45.045Z,100606.51
2022-10-19T05:24:14.239Z,100613.02
2022-10-19T05:26:42.976Z,100613.06
2022-10-19T05:29:13.215Z,100613.10
2022-10-19T05:31:42.801Z,100617.78
2022-10-19T05:34:11.629Z,100622.61
2022-10-19T05:36:40.974Z,100621.95
2022-10-19T05:39:13.138Z,100618.55
2022-10-19T05:41:44.680Z,100616.70
2022-10-19T05:44:16.164Z,100614.39
2022-10-19T05:46:45.741Z,100615.98
2022-10-19T05:49:16.147Z,100615.13
2022-10-19T05:51:45.952Z,100615.17
2022-10-19T05:54:15.679Z,100619.41
2022-10-19T05:56:44.897Z,100627.45
2022-10-19T05:59:17.425Z,100625.23
2022-10-19T06:01:46.507Z,100620.68
2022-10-19T06:06:49.005Z,100627.90
2022-10-19T06:09:17.727Z,100627.30
2022-10-19T06:11:48.426Z,100628.11
2022-10-19T06:14:17.736Z,100630.63
2022-10-19T06:16:46.701Z,100629.48
2022-10-19T06:19:15.410Z,100628.98
2022-10-19T06:21:45.820Z,100622.70
2022-10-19T06:24:14.917Z,100627.05
2022-10-19T06:26:43.661Z,100628.41
2022-10-19T06:29:12.395Z,100635.27
2022-10-19T06:31:41.366Z,100635.11
2022-10-19T06:34:10.597Z,100629.86
2022-10-19T06:36:39.301Z,100635.20
2022-10-19T06:39:07.887Z,100637.09
2022-10-19T06:41:36.491Z,100639.63
2022-10-19T06:44:05.393Z,100643.95
2022-10-19T06:46:33.985Z,100644.77
2022-10-19T06:49:03.129Z,100642.08
2022-10-19T06:51:33.634Z,100642.96
2022-10-19T06:54:02.396Z,100647.84
2022-10-19T06:56:31.118Z,100654.55
2022-10-19T06:59:00.246Z,100650.88
2022-10-19T07:01:29.555Z,100654.14
2022-10-19T07:03:58.687Z,100652.21
2022-10-19T07:06:29.006Z,100650.23
2022-10-19T07:08:57.783Z,100643.02
2022-10-19T07:11:26.957Z,100658.98
2022-10-19T07:13:55.998Z,100654.07
2022-10-19T07:16:24.979Z,100650.66
2022-10-19T07:18:54.571Z,100651.33
2022-10-19T07:21:24.600Z,100651.45
2022-10-19T07:23:53.379Z,100650.73
2022-10-19T07:26:26.241Z,100649.96
2022-10-19T07:28:57.429Z,100652.59
2022-10-19T07:31:27.553Z,100658.13
2022-10-19T07:33:57.832Z,100661.11
2022-10-19T07:36:27.475Z,100664.58
2022-10-19T07:38:56.779Z,100664.31
2022-10-19T07:41:26.827Z,100665.16
2022-10-19T07:43:57.440Z,100663.73
2022-10-19T07:46:29.015Z,100663.70
2022-10-19T07:48:57.753Z,100669.21
2022-10-19T07:54:00.968Z,100662.59
2022-10-19T07:56:30.519Z,100659.36
2022-10-19T07:59:00.512Z,100660.45
2022-10-19T08:01:31.421Z,100665.80
2022-10-19T08:06:50.892Z,100668.31
2022-10-19T08:09:40.448Z,100668.11
2022-10-19T08:12:12.489Z,100665.13
2022-10-19T08:14:43.559Z,100659.42
2022-10-19T08:17:17.040Z,100657.76
2022-10-19T08:19:46.647Z,100659.16
2022-10-19T08:22:15.450Z,100656.11
2022-10-19T08:24:45.094Z,100649.77
2022-10-19T08:27:14.860Z,100656.22
2022-10-19T08:29:44.319Z,100655.86
2022-10-19T08:32:13.523Z,100658.39
2022-10-19T08:34:42.869Z,100652.77
2022-10-19T08:37:26.078Z,100657.35
2022-10-19T08:40:00.558Z,100654.77
2022-10-19T08:42:37.769Z,100651.77
2022-10-19T08:45:34.638Z,100647.51
2022-10-19T08:48:19.131Z,100651.46
2022-10-19T08:50:49.045Z,100649.84
2022-10-19T08:53:22.630Z,100653.62
2022-10-19T08:56:04.550Z,100649.77
2022-10-19T08:58:46.737Z,100646.28
2022-10-19T09:01:24.674Z,100641.96
2022-10-19T09:04:01.385Z,100648.86
2022-10-19T09:06:37.719Z,100663.87
2022-10-19T09:09:11.306Z,100657.73
2022-10-19T09:11:45.031Z,100665.60
2022-10-19T09:14:18.830Z,100665.79
2022-10-19T09:16:47.817Z,100674.11
2022-10-19T09:19:25.265Z,100680.48
2022-10-19T09:21:58.161Z,100677.75
2022-10-19T09:24:37.349Z,100677.80
2022-10-19T09:27:11.473Z,100677.41
2022-10-19T09:29:44.531Z,100680.15
2022-10-19T09:32:18.954Z,100680.36
2022-10-19T09:34:51.252Z,100679.27
2022-10-19T09:37:25.900Z,100671.64
2022-10-19T09:39:56.416Z,100673.09
2022-10-19T09:42:29.803Z,100686.05
2022-10-19T09:45:00.971Z,100685.06
2022-10-19T09:47:36.069Z,100684.99
2022-10-19T09:50:17.106Z,100685.95
2022-10-19T09:52:47.043Z,100688.85
2022-10-19T09:55:38.462Z,100690.61
2022-10-19T09:58:18.212Z,100687.38
2022-10-19T10:00:50.118Z,100686.92
2022-10-19T10:03:28.145Z,100689.83
2022-10-19T10:05:59.729Z,100688.88
2022-10-19T10:08:33.306Z,100688.19
2022-10-19T10:11:08.277Z,100692.61
2022-10-19T10:13:42.640Z,100689.41
2022-10-19T10:16:15.132Z,100688.21
2022-10-19T10:18:54.679Z,100686.34
2022-10-19T10:21:26.091Z,100684.55
2022-10-19T10:24:05.164Z,100687.61
2022-10-19T10:26:39.897Z,100679.35
2022-10-19T10:29:20.806Z,100687.45
2022-10-19T10:31:52.970Z,100683.83
2022-10-19T10:37:28.577Z,100685.06
2022-10-19T10:40:00.415Z,100676.88
2022-10-19T10:42:40.664Z,100684.91
2022-10-19T10:45:19.427Z,100678.97
2022-10-19T10:47:49.839Z,100691.39
2022-10-19T10:50:23.067Z,100712.25
2022-10-19T10:53:01.889Z,100723.17
2022-10-19T10:55:31.267Z,100730.36
2022-10-19T10:58:12.697Z,100733.61
2022-10-19T11:00:43.694Z,100744.09
2022-10-19T11:03:17.622Z,100739.29
2022-10-19T11:05:49.432Z,100741.89
2022-10-19T11:08:25.165Z,100754.64
2022-10-19T11:11:00.638Z,100756.10
2022-10-19T11:13:35.639Z,100754.43
2022-10-19T11:16:13.028Z,100752.30
2022-10-19T11:18:46.216Z,100748.67
2022-10-19T11:21:20.365Z,100744.34
2022-10-19T11:24:11.220Z,100740.89
2022-10-19T11:26:58.774Z,100742.09
2022-10-19T11:29:43.499Z,100737.43
2022-10-19T11:32:20.484Z,100738.31
2022-10-19T11:35:02.585Z,100741.13
2022-10-19T11:37:49.440Z,100744.63
2022-10-19T11:40:28.082Z,100739.83
2022-10-19T11:43:04.420Z,100741.56
2022-10-19T11:45:46.254Z,100738.56
2022-10-19T11:48:32.812Z,100748.47
2022-10-19T11:51:20.605Z,100744.13
2022-10-19T11:54:05.898Z,100741.95
2022-10-19T11:57:01.712Z,100741.29
2022-10-19T11:59:36.056Z,100741.84
2022-10-19T12:02:20.833Z,100740.95
2022-10-19T12:04:57.036Z,100741.53
2022-10-19T12:07:40.683Z,100747.27
2022-10-19T12:10:18.541Z,100748.36
2022-10-19T12:12:51.039Z,100743.21
2022-10-19T12:15:26.328Z,100740.38
2022-10-19T12:17:57.372Z,100740.56
2022-10-19T12:20:32.742Z,100743.45
2022-10-19T12:23:21.645Z,100743.75
2022-10-19T12:25:53.316Z,100742.64
2022-10-19T12:28:27.851Z,100747.09
2022-10-19T12:30:58.191Z,100745.98
2022-10-19T12:33:35.699Z,100745.20
2022-10-19T12:36:16.228Z,100742.69
2022-10-19T12:38:59.762Z,100743.14
2022-10-19T12:41:37.046Z,100742.52
2022-10-19T12:44:22.493Z,100749.48
2022-10-19T12:46:58.730Z,100751.00
2022-10-19T12:49:52.990Z,100751.83
2022-10-19T12:52:41.999Z,100745.52
2022-10-19T12:55:27.469Z,100751.52
2022-10-19T12:58:02.716Z,100754.86
2022-10-19T13:00:33.524Z,100757.22
2022-10-19T13:03:06.427Z,100756.19
2022-10-19T13:05:36.147Z,100753.66
2022-10-19T13:08:09.272Z,100756.06
2022-10-19T13:10:40.887Z,100752.55
2022-10-19T13:13:52.583Z,100748.88
2022-10-19T13:17:01.963Z,100754.09
2022-10-19T13:19:30.956Z,100756.40
2022-10-19T13:22:26.699Z,100758.30
2022-10-19T13:25:21.450Z,100750.16
2022-10-19T13:27:51.377Z,100755.44
2022-10-19T13:31:03.307Z,100751.71
2022-10-19T13:33:54.729Z,100751.75
2022-10-19T13:36:25.803Z,100752.75
2022-10-19T13:39:15.809Z,100749.08
2022-10-19T13:41:51.011Z,100756.57
2022-10-19T13:44:24.606Z,100759.38
2022-10-19T13:47:14.101Z,100757.63
2022-10-19T13:50:16.871Z,100764.38
2022-10-19T13:52:59.140Z,100767.25
2022-10-19T13:55:55.559Z,100771.40
2022-10-19T13:58:45.074Z,100771.56
2022-10-19T14:01:26.274Z,100776.15
2022-10-19T14:04:18.182Z,100781.05
2022-10-19T14:06:53.322Z,100787.23
2022-10-19T14:09:51.886Z,100792.14
2022-10-19T14:12:24.287Z,100786.93
2022-10-19T14:14:54.266Z,100792.14
2022-10-19T14:17:24.973Z,100796.54
2022-10-19T14:19:56.697Z,100795.15
2022-10-19T14:22:30.125Z,100801.33
2022-10-19T14:25:05.336Z,100804.38
2022-10-19T14:27:35.293Z,100806.32
2022-10-19T14:30:06.230Z,100808.70
2022-10-19T14:32:35.734Z,100810.09
2022-10-19T14:35:21.646Z,100811.10
2022-10-19T14:37:51.349Z,100811.04
2022-10-19T14:40:30.153Z,100812.36
2022-10-19T14:43:00.757Z,100819.44
2022-10-19T14:45:31.624Z,100815.31
2022-10-19T14:48:04.136Z,100823.70
2022-10-19T14:50:47.562Z,100823.17
2022-10-19T14:53:31.406Z,100827.75
2022-10-19T14:56:06.301Z,100837.20
2022-10-19T14:58:39.843Z,100836.83
2022-10-19T15:01:09.972Z,100841.83
2022-10-19T15:03:43.718Z,100842.06
2022-10-19T15:06:19.421Z,100843.20
2022-10-19T15:11:29.712Z,100853.96
2022-10-19T15:14:08.349Z,100855.25
2022-10-19T15:16:44.968Z,100859.70
2022-10-19T15:19:19.707Z,100866.73
2022-10-19T15:21:47.456Z,100872.73
2022-10-19T15:24:27.564Z,100875.77
2022-10-19T15:27:08.690Z,100875.21
2022-10-19T15:29:38.345Z,100881.67
2022-10-19T15:32:22.545Z,100883.44
2022-10-19T15:34:51.671Z,100887.19
2022-10-19T15:37:23.373Z,100893.30
2022-10-19T15:39:52.866Z,100897.83
2022-10-19T15:42:34.741Z,100896.30
2022-10-19T15:45:04.225Z,100899.91
2022-10-19T15:47:34.010Z,100897.46
2022-10-19T15:50:25.671Z,100898.98
2022-10-19T15:52:56.599Z,100900.55
2022-10-19T15:55:25.588Z,100896.15
2022-10-19T15:58:00.004Z,100899.16
2022-10-19T16:00:30.333Z,100905.00
2022-10-19T16:02:59.576Z,100904.02
2022-10-19T16:05:29.252Z,100912.95
2022-10-19T16:07:58.685Z,100912.82
2022-10-19T16:10:28.326Z,100926.91
2022-10-19T16:12:57.252Z,100930.95
2022-10-19T16:15:26.478Z,100929.34
2022-10-19T16:17:58.266Z,100938.92
2022-10-19T16:20:30.008Z,100946.31
2022-10-19T16:22:58.954Z,100955.27
2022-10-19T16:25:27.765Z,100956.14
2022-10-19T16:27:56.599Z,100952.80
2022-10-19T16:30:25.326Z,100956.99
2022-10-19T16:32:54.142Z,100962.00
2022-10-19T16:35:24.072Z,100964.47
2022-10-19T16:37:52.908Z,100968.48
2022-10-19T16:40:21.803Z,100972.15
2022-10-19T16:42:50.897Z,100973.51
2022-10-19T16:45:19.751Z,100977.31
2022-10-19T16:47:51.671Z,100981.83
2022-10-19T16:50:21.229Z,100988.17
2022-10-19T16:53:05.088Z,100987.40
2022-10-19T16:55:35.255Z,100990.51
2022-10-19T16:58:04.162Z,100988.76
2022-10-19T17:00:33.002Z,100988.83
2022-10-19T17:03:02.266Z,100998.44
2022-10-19T17:05:31.541Z,100999.36
2022-10-19T17:08:01.701Z,101004.77
2022-10-19T17:10:31.394Z,101008.48
2022-10-19T17:13:00.840Z,101011.80
2022-10-19T17:15:42.546Z,101014.77
2022-10-19T17:18:12.416Z,101020.52
2022-10-19T17:20:41.259Z,101023.66
2022-10-19T17:23:13.845Z,101025.59
2022-10-19T17:25:49.882Z,101030.48
2022-10-19T17:28:21.042Z,101030.60
2022-10-19T17:30:53.092Z,101034.84
2022-10-19T17:33:22.924Z,101041.15
2022-10-19T17:35:52.035Z,101041.58
2022-10-19T17:38:21.097Z,101039.54
2022-10-19T17:40:50.231Z,101037.48
2022-10-19T17:43:19.357Z,101043.57
2022-10-19T17:45:48.574Z,101042.23
2022-10-19T17:48:18.127Z,101045.72
2022-10-19T17:50:56.679Z,101045.42
2022-10-19T17:53:25.849Z,101044.14
2022-10-19T17:55:54.822Z,101044.55
2022-10-19T17:58:24.804Z,101049.02
2022-10-19T18:00:58.169Z,101057.47
2022-10-19T18:03:30.478Z,101059.52
2022-10-19T18:06:04.608Z,101061.67
2022-10-19T18:08:38.311Z,101060.92
2022-10-19T18:11:10.160Z,101065.61
2022-10-19T18:13:41.033Z,101066.02
2022-10-19T18:16:12.638Z,101068.45
2022-10-19T18:18:46.091Z,101070.27
2022-10-19T18:21:17.462Z,101067.96
2022-10-19T18:23:46.798Z,101071.50
2022-10-19T18:26:21.684Z,101072.30
2022-10-19T18:28:52.834Z,101074.09
2022-10-19T18:31:24.182Z,101078.14
2022-10-19T18:33:59.070Z,101076.13
2022-10-19T18:36:29.397Z,101081.79
2022-10-19T18:39:00.000Z,101082.90
2022-10-19T18:41:30.365Z,101083.98
2022-10-19T18:44:03.311Z,101082.64
2022-10-19T18:46:33.871Z,101090.48
2022-10-19T18:49:04.956Z,101092.97
2022-10-19T18:51:34.626Z,101095.77
2022-10-19T18:54:04.579Z,101093.67
2022-10-19T18:56:34.049Z,101093.25
2022-10-19T18:59:03.749Z,101096.08
2022-10-19T19:01:33.173Z,101096.88
2022-10-19T19:04:10.130Z,101099.58
2022-10-19T19:06:40.229Z,101099.35
2022-10-19T19:09:14.691Z,101102.28
2022-10-19T19:11:43.996Z,101102.46
2022-10-19T19:14:16.260Z,101108.58
2022-10-19T19:16:46.184Z,101112.20
2022-10-19T19:19:17.220Z,101116.28
2022-10-19T19:21:47.540Z,101115.98
2022-10-19T19:24:19.029Z,101118.21
2022-10-19T19:26:50.819Z,101124.98
2022-10-19T19:29:21.608Z,101128.16
2022-10-19T19:31:51.532Z,101126.92
2022-10-19T19:34:21.198Z,101133.70
2022-10-19T19:36:50.584Z,101140.30
2022-10-19T19:39:21.397Z,101138.77
2022-10-19T19:41:51.359Z,101143.33
2022-10-19T19:44:21.304Z,101144.66
2022-10-19T19:46:50.706Z,101140.30
2022-10-19T19:49:24.443Z,101142.61
2022-10-19T19:51:54.784Z,101148.09
2022-10-19T19:54:24.515Z,101150.77
2022-10-19T19:56:55.631Z,101159.19
2022-10-19T19:59:24.919Z,101155.55
2022-10-19T20:01:54.245Z,101163.80
2022-10-19T20:04:25.691Z,101166.23
2022-10-19T20:06:55.800Z,101169.04
2022-10-19T20:09:26.862Z,101173.41
2022-10-19T20:11:56.234Z,101174.71
2022-10-19T20:14:25.011Z,101175.73
2022-10-19T20:16:54.207Z,101175.33
2022-10-19T20:19:24.810Z,101179.41
2022-10-19T20:22:10.142Z,101182.38
2022-10-19T20:24:40.317Z,101182.35
2022-10-19T20:27:10.159Z,101191.83
2022-10-19T20:29:39.468Z,101193.63
2022-10-19T20:32:09.146Z,101197.96
2022-10-19T20:34:38.336Z,101199.39
2022-10-19T20:37:08.767Z,101199.95
2022-10-19T20:39:37.724Z,101197.77
2022-10-19T20:42:06.670Z,101202.48
2022-10-19T20:44:35.420Z,101198.31
2022-10-19T20:47:05.189Z,101201.59
2022-10-19T20:49:34.551Z,101198.49
2022-10-19T20:52:03.825Z,101199.59
2022-10-19T20:54:32.664Z,101203.28
2022-10-19T20:57:02.090Z,101204.21
2022-10-19T20:59:33.095Z,101205.75
2022-10-19T21:02:01.892Z,101207.69
2022-10-19T21:04:31.144Z,101206.80
2022-10-19T21:07:00.746Z,101212.27
2022-10-19T21:09:29.520Z,101208.53
2022-10-19T21:11:58.512Z,101207.06
2022-10-19T21:14:31.035Z,101211.79
2022-10-19T21:17:00.666Z,101215.11
2022-10-19T21:19:31.108Z,101211.95
2022-10-19T21:22:02.030Z,101211.27
2022-10-19T21:24:32.603Z,101206.63
2022-10-19T21:27:03.372Z,101208.83
2022-10-19T21:29:32.115Z,101208.20
2022-10-19T21:32:00.690Z,101212.77
2022-10-19T21:34:31.733Z,101213.62
2022-10-19T21:37:00.626Z,101207.53
2022-10-19T21:39:29.217Z,101208.66
2022-10-19T21:41:58.141Z,101208.46
2022-10-19T21:44:26.795Z,101208.83
2022-10-19T21:46:55.594Z,101212.43
2022-10-19T21:49:24.574Z,101208.89
2022-10-19T21:51:58.089Z,101209.25
2022-10-19T21:54:27.339Z,101207.70
2022-10-19T21:56:58.149Z,101208.41
2022-10-19T21:59:27.096Z,101208.70
2022-10-19T22:01:56.721Z,101207.61
2022-10-19T22:04:25.539Z,101205.00
2022-10-19T22:06:54.341Z,101203.77
2022-10-19T22:09:23.583Z,101205.66
2022-10-19T22:11:52.324Z,101200.83
2022-10-19T22:14:21.006Z,101199.45
2022-10-19T22:16:49.740Z,101204.19
2022-10-19T22:19:18.433Z,101201.05
2022-10-19T22:21:47.076Z,101208.58
2022-10-19T22:24:16.668Z,101211.24
2022-10-19T22:26:47.003Z,101219.26
2022-10-19T22:29:15.732Z,101223.08
2022-10-19T22:31:44.836Z,101225.88
2022-10-19T22:34:15.414Z,101224.36
2022-10-19T22:36:45.333Z,101225.84
2022-10-19T22:39:14.848Z,101228.78
2022-10-19T22:42:25.773Z,101231.60
2022-10-19T22:44:54.745Z,101235.67
2022-10-19T22:47:23.580Z,101240.88
2022-10-19T22:49:52.529Z,101247.27
2022-10-19T22:52:21.348Z,101252.37
2022-10-19T22:54:50.843Z,101253.39
2022-10-19T22:57:19.682Z,101249.06
2022-10-19T22:59:48.340Z,101250.91
2022-10-19T23:02:17.343Z,101247.88
2022-10-19T23:04:46.064Z,101246.83
2022-10-19T23:07:14.917Z,101253.68
2022-10-19T23:09:43.699Z,101255.38
2022-10-19T23:12:12.476Z,101258.39
2022-10-19T23:14:41.186Z,101257.56
2022-10-19T23:17:09.976Z,101259.33
2022-10-19T23:19:38.737Z,101255.96
2022-10-19T23:22:07.257Z,101256.23
2022-10-19T23:24:38.568Z,101262.02
2022-10-19T23:27:08.306Z,101264.26
2022-10-19T23:29:37.273Z,101268.41
2022-10-19T23:32:06.853Z,101270.99
2022-10-19T23:37:09.579Z,101274.83
2022-10-19T23:39:38.508Z,101274.04
2022-10-19T23:42:07.159Z,101277.96
2022-10-19T23:44:35.709Z,101280.15
2022-10-19T23:47:04.278Z,101277.92
2022-10-19T23:49:32.938Z,101276.21
2022-10-19T23:52:01.625Z,101287.41
2022-10-19T23:54:30.443Z,101289.55
2022-10-19T23:56:59.256Z,101289.41
2022-10-19T23:59:27.811Z,101292.24
